sensor_id;sensor_type;location;lat;lon;timestamp;P1;durP1;ratioP1;P2;durP2;ratioP2
56045;SDS011;41913;51.030;3.706;2023-03-01T00:01:22;2.40;;;2.15;;
56045;SDS011;41913;51.030;3.706;2023-03-01T00:03:52;1.73;;;1.60;;
56045;SDS011;41913;51.030;3.706;2023-03-01T00:06:19;1.75;;;1.65;;
56045;SDS011;41913;51.030;3.706;2023-03-01T00:08:45;1.35;;;1.30;;
56045;SDS011;41913;51.030;3.706;2023-03-01T00:11:12;1.33;;;1.23;;
56045;SDS011;41913;51.030;3.706;2023-03-01T00:13:40;1.20;;;1.20;;
56045;SDS011;41913;51.030;3.706;2023-03-01T00:16:07;2.00;;;1.90;;
56045;SDS011;41913;51.030;3.706;2023-03-01T00:18:34;1.40;;;1.40;;
56045;SDS011;41913;51.030;3.706;2023-03-01T00:21:00;1.50;;;1.40;;
56045;SDS011;41913;51.030;3.706;2023-03-01T00:23:26;1.58;;;1.58;;
56045;SDS011;41913;51.030;3.706;2023-03-01T00:25:52;1.45;;;1.35;;
56045;SDS011;41913;51.030;3.706;2023-03-01T00:28:18;1.98;;;1.38;;
56045;SDS011;41913;51.030;3.706;2023-03-01T00:30:45;1.52;;;1.42;;
56045;SDS011;41913;51.030;3.706;2023-03-01T00:33:11;1.77;;;1.63;;
56045;SDS011;41913;51.030;3.706;2023-03-01T00:35:37;1.50;;;1.40;;
56045;SDS011;41913;51.030;3.706;2023-03-01T00:38:03;1.90;;;1.80;;
56045;SDS011;41913;51.030;3.706;2023-03-01T00:40:31;1.38;;;1.27;;
56045;SDS011;41913;51.030;3.706;2023-03-01T00:42:59;1.05;;;1.05;;
56045;SDS011;41913;51.030;3.706;2023-03-01T00:45:25;1.10;;;1.10;;
56045;SDS011;41913;51.030;3.706;2023-03-01T00:47:52;1.70;;;1.60;;
56045;SDS011;41913;51.030;3.706;2023-03-01T00:50:18;1.20;;;1.20;;
56045;SDS011;41913;51.030;3.706;2023-03-01T00:52:44;1.33;;;1.27;;
56045;SDS011;41913;51.030;3.706;2023-03-01T00:55:10;1.27;;;1.27;;
56045;SDS011;41913;51.030;3.706;2023-03-01T00:57:36;1.15;;;1.13;;
56045;SDS011;41913;51.030;3.706;2023-03-01T01:00:03;1.50;;;1.40;;
56045;SDS011;41913;51.030;3.706;2023-03-01T01:02:32;1.50;;;1.40;;
56045;SDS011;41913;51.030;3.706;2023-03-01T01:04:58;1.50;;;1.40;;
56045;SDS011;41913;51.030;3.706;2023-03-01T01:07:24;1.30;;;1.30;;
56045;SDS011;41913;51.030;3.706;2023-03-01T01:09:50;1.30;;;1.25;;
56045;SDS011;41913;51.030;3.706;2023-03-01T01:12:15;1.55;;;1.45;;
56045;SDS011;41913;51.030;3.706;2023-03-01T01:14:42;4.18;;;1.60;;
56045;SDS011;41913;51.030;3.706;2023-03-01T01:17:08;1.50;;;1.50;;
56045;SDS011;41913;51.030;3.706;2023-03-01T01:19:34;1.30;;;1.30;;
56045;SDS011;41913;51.030;3.706;2023-03-01T01:22:00;1.15;;;1.15;;
56045;SDS011;41913;51.030;3.706;2023-03-01T01:24:26;1.00;;;1.00;;
56045;SDS011;41913;51.030;3.706;2023-03-01T01:26:51;1.17;;;1.17;;
56045;SDS011;41913;51.030;3.706;2023-03-01T01:29:17;1.20;;;1.17;;
56045;SDS011;41913;51.030;3.706;2023-03-01T01:31:43;1.35;;;1.23;;
56045;SDS011;41913;51.030;3.706;2023-03-01T01:34:12;1.25;;;1.25;;
56045;SDS011;41913;51.030;3.706;2023-03-01T01:36:40;1.15;;;1.15;;
56045;SDS011;41913;51.030;3.706;2023-03-01T01:39:06;1.50;;;1.40;;
56045;SDS011;41913;51.030;3.706;2023-03-01T01:41:32;1.13;;;1.13;;
56045;SDS011;41913;51.030;3.706;2023-03-01T01:46:53;2.08;;;1.05;;
56045;SDS011;41913;51.030;3.706;2023-03-01T01:49:39;1.90;;;1.65;;
56045;SDS011;41913;51.030;3.706;2023-03-01T01:52:14;1.50;;;1.50;;
56045;SDS011;41913;51.030;3.706;2023-03-01T01:57:25;0.98;;;0.98;;
56045;SDS011;41913;51.030;3.706;2023-03-01T02:00:22;0.95;;;0.95;;
56045;SDS011;41913;51.030;3.706;2023-03-01T02:02:50;1.20;;;1.20;;
56045;SDS011;41913;51.030;3.706;2023-03-01T02:05:33;0.82;;;0.82;;
56045;SDS011;41913;51.030;3.706;2023-03-01T02:08:06;0.90;;;0.90;;
56045;SDS011;41913;51.030;3.706;2023-03-01T02:10:33;1.08;;;1.08;;
56045;SDS011;41913;51.030;3.706;2023-03-01T02:13:00;0.98;;;0.98;;
56045;SDS011;41913;51.030;3.706;2023-03-01T02:15:26;1.15;;;1.10;;
56045;SDS011;41913;51.030;3.706;2023-03-01T02:17:56;1.13;;;0.90;;
56045;SDS011;41913;51.030;3.706;2023-03-01T02:23:10;1.40;;;1.30;;
56045;SDS011;41913;51.030;3.706;2023-03-01T02:28:42;1.42;;;1.42;;
56045;SDS011;41913;51.030;3.706;2023-03-01T02:31:10;1.20;;;1.20;;
56045;SDS011;41913;51.030;3.706;2023-03-01T02:33:59;3.00;;;1.33;;
56045;SDS011;41913;51.030;3.706;2023-03-01T02:36:30;1.30;;;1.20;;
56045;SDS011;41913;51.030;3.706;2023-03-01T02:39:02;1.15;;;1.15;;
56045;SDS011;41913;51.030;3.706;2023-03-01T02:41:31;1.20;;;1.20;;
56045;SDS011;41913;51.030;3.706;2023-03-01T02:44:02;1.17;;;1.17;;
56045;SDS011;41913;51.030;3.706;2023-03-01T02:46:28;1.33;;;1.23;;
56045;SDS011;41913;51.030;3.706;2023-03-01T02:48:55;2.38;;;1.58;;
56045;SDS011;41913;51.030;3.706;2023-03-01T02:54:08;1.02;;;1.02;;
56045;SDS011;41913;51.030;3.706;2023-03-01T02:56:54;6.88;;;1.27;;
56045;SDS011;41913;51.030;3.706;2023-03-01T02:59:22;1.55;;;1.45;;
56045;SDS011;41913;51.030;3.706;2023-03-01T03:01:51;1.00;;;1.00;;
56045;SDS011;41913;51.030;3.706;2023-03-01T03:04:17;1.20;;;1.20;;
56045;SDS011;41913;51.030;3.706;2023-03-01T03:06:49;1.38;;;1.27;;
56045;SDS011;41913;51.030;3.706;2023-03-01T03:09:16;0.90;;;0.88;;
56045;SDS011;41913;51.030;3.706;2023-03-01T03:11:42;0.93;;;0.93;;
56045;SDS011;41913;51.030;3.706;2023-03-01T03:14:12;0.95;;;0.95;;
56045;SDS011;41913;51.030;3.706;2023-03-01T03:16:40;1.00;;;1.00;;
56045;SDS011;41913;51.030;3.706;2023-03-01T03:19:07;2.72;;;1.25;;
56045;SDS011;41913;51.030;3.706;2023-03-01T03:21:33;1.02;;;0.98;;
56045;SDS011;41913;51.030;3.706;2023-03-01T03:23:59;0.80;;;0.80;;
56045;SDS011;41913;51.030;3.706;2023-03-01T03:26:26;0.95;;;0.95;;
56045;SDS011;41913;51.030;3.706;2023-03-01T03:28:51;1.10;;;1.00;;
56045;SDS011;41913;51.030;3.706;2023-03-01T03:31:17;1.95;;;1.30;;
56045;SDS011;41913;51.030;3.706;2023-03-01T03:33:43;0.93;;;0.93;;
56045;SDS011;41913;51.030;3.706;2023-03-01T03:36:08;1.20;;;1.10;;
56045;SDS011;41913;51.030;3.706;2023-03-01T03:38:38;0.82;;;0.82;;
56045;SDS011;41913;51.030;3.706;2023-03-01T03:41:05;1.63;;;1.23;;
56045;SDS011;41913;51.030;3.706;2023-03-01T03:43:33;0.80;;;0.80;;
56045;SDS011;41913;51.030;3.706;2023-03-01T03:46:01;1.23;;;1.23;;
56045;SDS011;41913;51.030;3.706;2023-03-01T03:48:34;0.80;;;0.80;;
56045;SDS011;41913;51.030;3.706;2023-03-01T03:51:01;1.83;;;1.02;;
56045;SDS011;41913;51.030;3.706;2023-03-01T03:53:27;2.47;;;1.15;;
56045;SDS011;41913;51.030;3.706;2023-03-01T03:55:54;1.00;;;1.00;;
56045;SDS011;41913;51.030;3.706;2023-03-01T03:58:21;1.45;;;1.10;;
56045;SDS011;41913;51.030;3.706;2023-03-01T04:00:50;2.67;;;1.30;;
56045;SDS011;41913;51.030;3.706;2023-03-01T04:03:18;0.70;;;0.70;;
56045;SDS011;41913;51.030;3.706;2023-03-01T04:05:45;1.63;;;1.15;;
56045;SDS011;41913;51.030;3.706;2023-03-01T04:08:12;0.98;;;0.98;;
56045;SDS011;41913;51.030;3.706;2023-03-01T04:10:39;0.95;;;0.95;;
56045;SDS011;41913;51.030;3.706;2023-03-01T04:13:07;0.82;;;0.82;;
56045;SDS011;41913;51.030;3.706;2023-03-01T04:15:35;0.80;;;0.80;;
56045;SDS011;41913;51.030;3.706;2023-03-01T04:18:01;0.93;;;0.93;;
56045;SDS011;41913;51.030;3.706;2023-03-01T04:20:29;0.75;;;0.75;;
56045;SDS011;41913;51.030;3.706;2023-03-01T04:22:57;0.77;;;0.77;;
56045;SDS011;41913;51.030;3.706;2023-03-01T04:25:23;1.30;;;1.30;;
56045;SDS011;41913;51.030;3.706;2023-03-01T04:27:49;1.20;;;1.20;;
56045;SDS011;41913;51.030;3.706;2023-03-01T04:30:15;0.90;;;0.90;;
56045;SDS011;41913;51.030;3.706;2023-03-01T04:32:41;1.00;;;1.00;;
56045;SDS011;41913;51.030;3.706;2023-03-01T04:35:07;1.17;;;1.17;;
56045;SDS011;41913;51.030;3.706;2023-03-01T04:37:33;1.08;;;0.90;;
56045;SDS011;41913;51.030;3.706;2023-03-01T04:40:00;1.10;;;1.10;;
56045;SDS011;41913;51.030;3.706;2023-03-01T04:42:37;1.00;;;1.00;;
56045;SDS011;41913;51.030;3.706;2023-03-01T04:45:03;0.95;;;0.95;;
56045;SDS011;41913;51.030;3.706;2023-03-01T04:47:38;1.15;;;1.15;;
56045;SDS011;41913;51.030;3.706;2023-03-01T04:50:04;0.88;;;0.82;;
56045;SDS011;41913;51.030;3.706;2023-03-01T04:52:31;1.17;;;1.17;;
56045;SDS011;41913;51.030;3.706;2023-03-01T04:54:56;0.98;;;0.98;;
56045;SDS011;41913;51.030;3.706;2023-03-01T04:57:22;1.55;;;1.30;;
56045;SDS011;41913;51.030;3.706;2023-03-01T04:59:47;0.98;;;0.98;;
56045;SDS011;41913;51.030;3.706;2023-03-01T05:02:13;1.10;;;1.10;;
56045;SDS011;41913;51.030;3.706;2023-03-01T05:04:39;0.90;;;0.90;;
56045;SDS011;41913;51.030;3.706;2023-03-01T05:07:04;1.42;;;1.35;;
56045;SDS011;41913;51.030;3.706;2023-03-01T05:09:30;0.80;;;0.80;;
56045;SDS011;41913;51.030;3.706;2023-03-01T05:11:56;1.00;;;1.00;;
56045;SDS011;41913;51.030;3.706;2023-03-01T05:14:21;1.02;;;1.02;;
56045;SDS011;41913;51.030;3.706;2023-03-01T05:16:47;1.23;;;1.23;;
56045;SDS011;41913;51.030;3.706;2023-03-01T05:19:13;1.02;;;0.98;;
56045;SDS011;41913;51.030;3.706;2023-03-01T05:21:47;1.20;;;1.10;;
56045;SDS011;41913;51.030;3.706;2023-03-01T05:24:37;0.80;;;0.80;;
56045;SDS011;41913;51.030;3.706;2023-03-01T05:27:03;0.95;;;0.95;;
56045;SDS011;41913;51.030;3.706;2023-03-01T05:29:30;0.98;;;0.98;;
56045;SDS011;41913;51.030;3.706;2023-03-01T05:32:00;1.10;;;1.10;;
56045;SDS011;41913;51.030;3.706;2023-03-01T05:34:31;1.27;;;1.20;;
56045;SDS011;41913;51.030;3.706;2023-03-01T05:36:58;1.35;;;1.25;;
56045;SDS011;41913;51.030;3.706;2023-03-01T05:39:25;0.63;;;0.63;;
56045;SDS011;41913;51.030;3.706;2023-03-01T05:41:56;1.05;;;0.98;;
56045;SDS011;41913;51.030;3.706;2023-03-01T05:44:24;0.90;;;0.90;;
56045;SDS011;41913;51.030;3.706;2023-03-01T05:46:50;1.25;;;1.25;;
56045;SDS011;41913;51.030;3.706;2023-03-01T05:49:17;1.02;;;1.02;;
56045;SDS011;41913;51.030;3.706;2023-03-01T05:51:45;1.20;;;1.00;;
56045;SDS011;41913;51.030;3.706;2023-03-01T05:54:13;1.00;;;1.00;;
56045;SDS011;41913;51.030;3.706;2023-03-01T05:56:40;0.90;;;0.90;;
56045;SDS011;41913;51.030;3.706;2023-03-01T05:59:05;1.08;;;1.08;;
56045;SDS011;41913;51.030;3.706;2023-03-01T06:01:32;1.30;;;1.23;;
56045;SDS011;41913;51.030;3.706;2023-03-01T06:03:58;0.90;;;0.90;;
56045;SDS011;41913;51.030;3.706;2023-03-01T06:06:24;1.10;;;1.10;;
56045;SDS011;41913;51.030;3.706;2023-03-01T06:08:50;1.40;;;1.33;;
56045;SDS011;41913;51.030;3.706;2023-03-01T06:11:17;0.93;;;0.93;;
56045;SDS011;41913;51.030;3.706;2023-03-01T06:13:43;6.25;;;0.93;;
56045;SDS011;41913;51.030;3.706;2023-03-01T06:16:09;1.48;;;1.00;;
56045;SDS011;41913;51.030;3.706;2023-03-01T06:18:37;1.10;;;1.10;;
56045;SDS011;41913;51.030;3.706;2023-03-01T06:21:02;1.02;;;1.02;;
56045;SDS011;41913;51.030;3.706;2023-03-01T06:23:28;6.10;;;1.00;;
56045;SDS011;41913;51.030;3.706;2023-03-01T06:25:54;1.42;;;1.30;;
56045;SDS011;41913;51.030;3.706;2023-03-01T06:28:20;3.95;;;1.77;;
56045;SDS011;41913;51.030;3.706;2023-03-01T06:30:46;1.10;;;1.10;;
56045;SDS011;41913;51.030;3.706;2023-03-01T06:33:12;2.03;;;1.40;;
56045;SDS011;41913;51.030;3.706;2023-03-01T06:35:38;8.63;;;1.50;;
56045;SDS011;41913;51.030;3.706;2023-03-01T06:38:04;15.32;;;2.47;;
56045;SDS011;41913;51.030;3.706;2023-03-01T06:40:31;14.98;;;3.40;;
56045;SDS011;41913;51.030;3.706;2023-03-01T06:42:57;18.63;;;3.70;;
56045;SDS011;41913;51.030;3.706;2023-03-01T06:45:23;11.20;;;2.40;;
56045;SDS011;41913;51.030;3.706;2023-03-01T06:47:49;9.32;;;2.88;;
56045;SDS011;41913;51.030;3.706;2023-03-01T06:50:16;15.82;;;2.83;;
56045;SDS011;41913;51.030;3.706;2023-03-01T06:52:42;5.28;;;2.03;;
56045;SDS011;41913;51.030;3.706;2023-03-01T06:55:09;4.65;;;2.33;;
56045;SDS011;41913;51.030;3.706;2023-03-01T06:57:36;9.13;;;2.20;;
56045;SDS011;41913;51.030;3.706;2023-03-01T07:00:05;4.00;;;1.48;;
56045;SDS011;41913;51.030;3.706;2023-03-01T07:02:32;1.13;;;1.13;;
56045;SDS011;41913;51.030;3.706;2023-03-01T07:04:57;4.07;;;2.33;;
56045;SDS011;41913;51.030;3.706;2023-03-01T07:07:23;3.58;;;1.30;;
56045;SDS011;41913;51.030;3.706;2023-03-01T07:09:49;7.13;;;2.30;;
56045;SDS011;41913;51.030;3.706;2023-03-01T07:12:15;5.68;;;2.08;;
56045;SDS011;41913;51.030;3.706;2023-03-01T07:14:43;1.70;;;1.60;;
56045;SDS011;41913;51.030;3.706;2023-03-01T07:17:09;2.67;;;1.70;;
56045;SDS011;41913;51.030;3.706;2023-03-01T07:19:35;2.30;;;1.48;;
56045;SDS011;41913;51.030;3.706;2023-03-01T07:22:00;1.80;;;1.70;;
56045;SDS011;41913;51.030;3.706;2023-03-01T07:24:26;2.40;;;1.60;;
56045;SDS011;41913;51.030;3.706;2023-03-01T07:26:52;2.08;;;1.80;;
56045;SDS011;41913;51.030;3.706;2023-03-01T07:29:18;2.17;;;2.05;;
56045;SDS011;41913;51.030;3.706;2023-03-01T07:31:44;1.42;;;1.40;;
56045;SDS011;41913;51.030;3.706;2023-03-01T07:34:10;2.08;;;1.70;;
56045;SDS011;41913;51.030;3.706;2023-03-01T07:36:37;2.53;;;2.22;;
56045;SDS011;41913;51.030;3.706;2023-03-01T07:39:04;1.65;;;1.55;;
56045;SDS011;41913;51.030;3.706;2023-03-01T07:41:30;1.17;;;1.17;;
56045;SDS011;41913;51.030;3.706;2023-03-01T07:43:55;1.90;;;1.80;;
56045;SDS011;41913;51.030;3.706;2023-03-01T07:46:21;1.50;;;1.40;;
56045;SDS011;41913;51.030;3.706;2023-03-01T07:48:47;1.77;;;1.67;;
56045;SDS011;41913;51.030;3.706;2023-03-01T07:51:13;1.60;;;1.60;;
56045;SDS011;41913;51.030;3.706;2023-03-01T07:53:38;1.42;;;1.33;;
56045;SDS011;41913;51.030;3.706;2023-03-01T07:56:05;2.15;;;1.70;;
56045;SDS011;41913;51.030;3.706;2023-03-01T07:58:40;2.70;;;2.03;;
56045;SDS011;41913;51.030;3.706;2023-03-01T08:01:08;2.97;;;1.75;;
56045;SDS011;41913;51.030;3.706;2023-03-01T08:03:36;1.67;;;1.60;;
56045;SDS011;41913;51.030;3.706;2023-03-01T08:06:03;1.55;;;1.45;;
56045;SDS011;41913;51.030;3.706;2023-03-01T08:08:30;2.30;;;1.40;;
56045;SDS011;41913;51.030;3.706;2023-03-01T08:10:57;1.10;;;1.10;;
56045;SDS011;41913;51.030;3.706;2023-03-01T08:13:24;1.73;;;1.05;;
56045;SDS011;41913;51.030;3.706;2023-03-01T08:15:50;1.00;;;1.00;;
56045;SDS011;41913;51.030;3.706;2023-03-01T08:18:17;1.25;;;1.10;;
56045;SDS011;41913;51.030;3.706;2023-03-01T08:20:43;1.15;;;1.15;;
56045;SDS011;41913;51.030;3.706;2023-03-01T08:23:09;0.90;;;0.90;;
56045;SDS011;41913;51.030;3.706;2023-03-01T08:25:35;1.02;;;1.00;;
56045;SDS011;41913;51.030;3.706;2023-03-01T08:28:01;1.45;;;1.35;;
56045;SDS011;41913;51.030;3.706;2023-03-01T08:30:27;1.48;;;1.10;;
56045;SDS011;41913;51.030;3.706;2023-03-01T08:32:53;1.10;;;1.10;;
56045;SDS011;41913;51.030;3.706;2023-03-01T08:35:19;1.20;;;1.20;;
56045;SDS011;41913;51.030;3.706;2023-03-01T08:37:45;1.20;;;0.98;;
56045;SDS011;41913;51.030;3.706;2023-03-01T08:40:11;1.05;;;1.00;;
56045;SDS011;41913;51.030;3.706;2023-03-01T08:42:39;0.82;;;0.82;;
56045;SDS011;41913;51.030;3.706;2023-03-01T08:45:06;1.10;;;0.90;;
56045;SDS011;41913;51.030;3.706;2023-03-01T08:47:32;1.02;;;1.02;;
56045;SDS011;41913;51.030;3.706;2023-03-01T08:49:59;0.88;;;0.88;;
56045;SDS011;41913;51.030;3.706;2023-03-01T08:52:25;0.70;;;0.70;;
56045;SDS011;41913;51.030;3.706;2023-03-01T08:54:51;0.85;;;0.85;;
56045;SDS011;41913;51.030;3.706;2023-03-01T08:57:17;1.15;;;1.15;;
56045;SDS011;41913;51.030;3.706;2023-03-01T08:59:43;0.80;;;0.80;;
56045;SDS011;41913;51.030;3.706;2023-03-01T09:02:14;0.95;;;0.95;;
56045;SDS011;41913;51.030;3.706;2023-03-01T09:04:42;0.90;;;0.90;;
56045;SDS011;41913;51.030;3.706;2023-03-01T09:07:08;0.82;;;0.82;;
56045;SDS011;41913;51.030;3.706;2023-03-01T09:09:34;5.93;;;1.05;;
56045;SDS011;41913;51.030;3.706;2023-03-01T09:12:00;0.82;;;0.82;;
56045;SDS011;41913;51.030;3.706;2023-03-01T09:14:26;0.70;;;0.70;;
56045;SDS011;41913;51.030;3.706;2023-03-01T09:16:52;2.38;;;1.02;;
56045;SDS011;41913;51.030;3.706;2023-03-01T09:19:18;1.20;;;0.95;;
56045;SDS011;41913;51.030;3.706;2023-03-01T09:21:43;0.85;;;0.85;;
56045;SDS011;41913;51.030;3.706;2023-03-01T09:24:17;0.68;;;0.68;;
56045;SDS011;41913;51.030;3.706;2023-03-01T09:26:48;1.02;;;1.02;;
56045;SDS011;41913;51.030;3.706;2023-03-01T09:29:14;1.08;;;0.90;;
56045;SDS011;41913;51.030;3.706;2023-03-01T09:31:40;0.88;;;0.88;;
56045;SDS011;41913;51.030;3.706;2023-03-01T09:34:08;1.10;;;0.88;;
56045;SDS011;41913;51.030;3.706;2023-03-01T09:36:35;2.63;;;0.88;;
56045;SDS011;41913;51.030;3.706;2023-03-01T09:39:02;1.00;;;1.00;;
56045;SDS011;41913;51.030;3.706;2023-03-01T09:41:42;0.70;;;0.68;;
56045;SDS011;41913;51.030;3.706;2023-03-01T09:44:23;1.35;;;1.00;;
56045;SDS011;41913;51.030;3.706;2023-03-01T09:47:24;1.00;;;1.00;;
56045;SDS011;41913;51.030;3.706;2023-03-01T09:52:39;0.70;;;0.70;;
56045;SDS011;41913;51.030;3.706;2023-03-01T09:55:11;0.98;;;0.98;;
56045;SDS011;41913;51.030;3.706;2023-03-01T10:03:12;0.70;;;0.70;;
56045;SDS011;41913;51.030;3.706;2023-03-01T10:06:19;0.88;;;0.88;;
56045;SDS011;41913;51.030;3.706;2023-03-01T10:09:03;0.77;;;0.77;;
56045;SDS011;41913;51.030;3.706;2023-03-01T10:11:39;0.82;;;0.82;;
56045;SDS011;41913;51.030;3.706;2023-03-01T10:17:54;1.10;;;1.10;;
56045;SDS011;41913;51.030;3.706;2023-03-01T10:23:13;0.90;;;0.90;;
56045;SDS011;41913;51.030;3.706;2023-03-01T10:25:57;1.20;;;1.05;;
56045;SDS011;41913;51.030;3.706;2023-03-01T10:28:54;1.17;;;1.08;;
56045;SDS011;41913;51.030;3.706;2023-03-01T10:31:30;0.80;;;0.80;;
56045;SDS011;41913;51.030;3.706;2023-03-01T10:34:13;1.50;;;1.40;;
56045;SDS011;41913;51.030;3.706;2023-03-01T10:36:42;1.15;;;1.15;;
56045;SDS011;41913;51.030;3.706;2023-03-01T10:39:16;1.00;;;1.00;;
56045;SDS011;41913;51.030;3.706;2023-03-01T10:41:52;2.55;;;1.20;;
56045;SDS011;41913;51.030;3.706;2023-03-01T10:44:44;0.90;;;0.90;;
56045;SDS011;41913;51.030;3.706;2023-03-01T10:47:26;0.90;;;0.90;;
56045;SDS011;41913;51.030;3.706;2023-03-01T10:49:57;2.30;;;1.10;;
56045;SDS011;41913;51.030;3.706;2023-03-01T10:52:26;0.90;;;0.90;;
56045;SDS011;41913;51.030;3.706;2023-03-01T10:54:55;1.02;;;1.02;;
56045;SDS011;41913;51.030;3.706;2023-03-01T11:00:25;2.75;;;0.77;;
56045;SDS011;41913;51.030;3.706;2023-03-01T11:05:35;0.90;;;0.85;;
56045;SDS011;41913;51.030;3.706;2023-03-01T11:08:01;1.10;;;1.10;;
56045;SDS011;41913;51.030;3.706;2023-03-01T11:10:33;1.10;;;1.10;;
56045;SDS011;41913;51.030;3.706;2023-03-01T11:13:16;1.30;;;1.23;;
56045;SDS011;41913;51.030;3.706;2023-03-01T11:15:57;0.80;;;0.80;;
56045;SDS011;41913;51.030;3.706;2023-03-01T11:18:27;1.20;;;1.10;;
56045;SDS011;41913;51.030;3.706;2023-03-01T11:20:55;1.00;;;1.00;;
56045;SDS011;41913;51.030;3.706;2023-03-01T11:23:23;0.80;;;0.80;;
56045;SDS011;41913;51.030;3.706;2023-03-01T11:26:04;1.30;;;1.20;;
56045;SDS011;41913;51.030;3.706;2023-03-01T11:28:32;1.00;;;1.00;;
56045;SDS011;41913;51.030;3.706;2023-03-01T11:31:05;1.30;;;1.10;;
56045;SDS011;41913;51.030;3.706;2023-03-01T11:33:44;0.80;;;0.80;;
56045;SDS011;41913;51.030;3.706;2023-03-01T11:39:10;1.10;;;1.10;;
56045;SDS011;41913;51.030;3.706;2023-03-01T11:41:48;1.02;;;1.02;;
56045;SDS011;41913;51.030;3.706;2023-03-01T11:44:27;0.95;;;0.95;;
56045;SDS011;41913;51.030;3.706;2023-03-01T11:49:43;0.98;;;0.98;;
56045;SDS011;41913;51.030;3.706;2023-03-01T11:52:20;1.02;;;1.02;;
56045;SDS011;41913;51.030;3.706;2023-03-01T12:08:32;1.10;;;1.10;;
56045;SDS011;41913;51.030;3.706;2023-03-01T12:25:03;1.10;;;1.10;;
56045;SDS011;41913;51.030;3.706;2023-03-01T12:27:55;0.88;;;0.88;;
56045;SDS011;41913;51.030;3.706;2023-03-01T12:39:13;1.35;;;0.90;;
56045;SDS011;41913;51.030;3.706;2023-03-01T12:47:25;1.10;;;1.10;;
56045;SDS011;41913;51.030;3.706;2023-03-01T12:50:20;1.05;;;1.00;;
56045;SDS011;41913;51.030;3.706;2023-03-01T12:55:26;1.20;;;1.20;;
56045;SDS011;41913;51.030;3.706;2023-03-01T12:58:03;1.42;;;1.13;;
56045;SDS011;41913;51.030;3.706;2023-03-01T13:00:48;1.05;;;1.05;;
56045;SDS011;41913;51.030;3.706;2023-03-01T13:06:11;1.05;;;0.93;;
56045;SDS011;41913;51.030;3.706;2023-03-01T13:08:49;1.25;;;1.10;;
56045;SDS011;41913;51.030;3.706;2023-03-01T13:11:25;1.52;;;1.05;;
56045;SDS011;41913;51.030;3.706;2023-03-01T13:13:52;1.20;;;1.10;;
56045;SDS011;41913;51.030;3.706;2023-03-01T13:16:53;1.85;;;1.20;;
56045;SDS011;41913;51.030;3.706;2023-03-01T13:19:23;1.25;;;1.25;;
56045;SDS011;41913;51.030;3.706;2023-03-01T13:21:52;1.33;;;1.23;;
56045;SDS011;41913;51.030;3.706;2023-03-01T13:34:57;1.55;;;1.30;;
56045;SDS011;41913;51.030;3.706;2023-03-01T13:37:48;1.40;;;1.30;;
56045;SDS011;41913;51.030;3.706;2023-03-01T13:42:48;1.17;;;1.08;;
56045;SDS011;41913;51.030;3.706;2023-03-01T13:45:27;1.80;;;1.63;;
56045;SDS011;41913;51.030;3.706;2023-03-01T13:48:02;1.77;;;1.45;;
56045;SDS011;41913;51.030;3.706;2023-03-01T13:50:34;1.20;;;1.10;;
56045;SDS011;41913;51.030;3.706;2023-03-01T13:53:10;2.28;;;1.42;;
56045;SDS011;41913;51.030;3.706;2023-03-01T13:55:45;1.35;;;1.35;;
56045;SDS011;41913;51.030;3.706;2023-03-01T13:58:23;2.53;;;1.30;;
56045;SDS011;41913;51.030;3.706;2023-03-01T14:01:01;1.00;;;0.85;;
56045;SDS011;41913;51.030;3.706;2023-03-01T14:03:32;2.05;;;1.27;;
56045;SDS011;41913;51.030;3.706;2023-03-01T14:06:00;1.67;;;1.45;;
56045;SDS011;41913;51.030;3.706;2023-03-01T14:08:37;1.00;;;1.00;;
56045;SDS011;41913;51.030;3.706;2023-03-01T14:19:55;15.68;;;1.80;;
56045;SDS011;41913;51.030;3.706;2023-03-01T14:22:24;1.23;;;1.00;;
56045;SDS011;41913;51.030;3.706;2023-03-01T14:24:58;0.93;;;0.93;;
56045;SDS011;41913;51.030;3.706;2023-03-01T14:27:42;1.25;;;0.90;;
56045;SDS011;41913;51.030;3.706;2023-03-01T14:32:40;1.02;;;1.02;;
56045;SDS011;41913;51.030;3.706;2023-03-01T14:35:19;1.02;;;1.02;;
56045;SDS011;41913;51.030;3.706;2023-03-01T14:37:48;1.10;;;1.00;;
56045;SDS011;41913;51.030;3.706;2023-03-01T14:43:10;1.05;;;0.93;;
56045;SDS011;41913;51.030;3.706;2023-03-01T14:45:42;1.30;;;1.30;;
56045;SDS011;41913;51.030;3.706;2023-03-01T14:48:13;1.00;;;1.00;;
56045;SDS011;41913;51.030;3.706;2023-03-01T14:50:41;2.65;;;1.20;;
56045;SDS011;41913;51.030;3.706;2023-03-01T14:53:12;0.93;;;0.93;;
56045;SDS011;41913;51.030;3.706;2023-03-01T14:55:54;1.10;;;1.10;;
56045;SDS011;41913;51.030;3.706;2023-03-01T14:58:25;0.98;;;0.98;;
56045;SDS011;41913;51.030;3.706;2023-03-01T15:00:56;1.58;;;1.38;;
56045;SDS011;41913;51.030;3.706;2023-03-01T15:06:01;0.98;;;0.98;;
56045;SDS011;41913;51.030;3.706;2023-03-01T15:08:28;0.85;;;0.85;;
56045;SDS011;41913;51.030;3.706;2023-03-01T15:11:05;0.85;;;0.85;;
56045;SDS011;41913;51.030;3.706;2023-03-01T15:13:43;0.95;;;0.95;;
56045;SDS011;41913;51.030;3.706;2023-03-01T15:18:43;0.85;;;0.85;;
56045;SDS011;41913;51.030;3.706;2023-03-01T15:23:54;0.80;;;0.80;;
56045;SDS011;41913;51.030;3.706;2023-03-01T15:26:28;1.00;;;0.82;;
56045;SDS011;41913;51.030;3.706;2023-03-01T15:29:01;0.90;;;0.90;;
56045;SDS011;41913;51.030;3.706;2023-03-01T15:31:31;0.90;;;0.90;;
56045;SDS011;41913;51.030;3.706;2023-03-01T15:34:07;1.75;;;0.98;;
56045;SDS011;41913;51.030;3.706;2023-03-01T15:36:54;1.25;;;1.15;;
56045;SDS011;41913;51.030;3.706;2023-03-01T15:42:03;1.10;;;0.90;;
56045;SDS011;41913;51.030;3.706;2023-03-01T15:45:19;0.90;;;0.90;;
56045;SDS011;41913;51.030;3.706;2023-03-01T15:47:57;1.60;;;1.13;;
56045;SDS011;41913;51.030;3.706;2023-03-01T15:50:29;0.80;;;0.80;;
56045;SDS011;41913;51.030;3.706;2023-03-01T15:53:00;2.23;;;1.03;;
56045;SDS011;41913;51.030;3.706;2023-03-01T15:55:30;0.85;;;0.85;;
56045;SDS011;41913;51.030;3.706;2023-03-01T15:58:18;0.90;;;0.90;;
56045;SDS011;41913;51.030;3.706;2023-03-01T16:00:47;0.65;;;0.65;;
56045;SDS011;41913;51.030;3.706;2023-03-01T16:03:16;1.13;;;1.05;;
56045;SDS011;41913;51.030;3.706;2023-03-01T16:05:46;1.25;;;1.20;;
56045;SDS011;41913;51.030;3.706;2023-03-01T16:08:13;1.17;;;0.90;;
56045;SDS011;41913;51.030;3.706;2023-03-01T16:10:40;1.02;;;1.00;;
56045;SDS011;41913;51.030;3.706;2023-03-01T16:13:09;0.95;;;0.90;;
56045;SDS011;41913;51.030;3.706;2023-03-01T16:15:35;0.85;;;0.73;;
56045;SDS011;41913;51.030;3.706;2023-03-01T16:18:01;1.23;;;1.13;;
56045;SDS011;41913;51.030;3.706;2023-03-01T16:20:28;1.20;;;1.20;;
56045;SDS011;41913;51.030;3.706;2023-03-01T16:22:55;0.90;;;0.90;;
56045;SDS011;41913;51.030;3.706;2023-03-01T16:25:25;1.30;;;1.20;;
56045;SDS011;41913;51.030;3.706;2023-03-01T16:27:51;1.27;;;1.17;;
56045;SDS011;41913;51.030;3.706;2023-03-01T16:30:18;1.30;;;1.30;;
56045;SDS011;41913;51.030;3.706;2023-03-01T16:32:46;1.95;;;1.65;;
56045;SDS011;41913;51.030;3.706;2023-03-01T16:35:14;1.10;;;0.95;;
56045;SDS011;41913;51.030;3.706;2023-03-01T16:37:42;1.10;;;1.10;;
56045;SDS011;41913;51.030;3.706;2023-03-01T16:40:16;0.90;;;0.90;;
56045;SDS011;41913;51.030;3.706;2023-03-01T16:42:46;0.93;;;0.93;;
56045;SDS011;41913;51.030;3.706;2023-03-01T16:45:13;1.02;;;0.95;;
56045;SDS011;41913;51.030;3.706;2023-03-01T16:47:40;1.38;;;1.27;;
56045;SDS011;41913;51.030;3.706;2023-03-01T16:50:06;1.23;;;1.15;;
56045;SDS011;41913;51.030;3.706;2023-03-01T16:52:33;0.98;;;0.98;;
56045;SDS011;41913;51.030;3.706;2023-03-01T16:55:00;1.10;;;1.10;;
56045;SDS011;41913;51.030;3.706;2023-03-01T16:57:27;1.15;;;1.08;;
56045;SDS011;41913;51.030;3.706;2023-03-01T16:59:53;2.30;;;1.00;;
56045;SDS011;41913;51.030;3.706;2023-03-01T17:02:19;1.17;;;1.15;;
56045;SDS011;41913;51.030;3.706;2023-03-01T17:04:55;1.70;;;1.60;;
56045;SDS011;41913;51.030;3.706;2023-03-01T17:07:21;1.00;;;1.00;;
56045;SDS011;41913;51.030;3.706;2023-03-01T17:09:47;1.48;;;1.13;;